createdAt,value
2023-03-26T00:00:22.727Z,1000.09
2023-03-26T00:01:22.688Z,1000.07
2023-03-26T00:02:22.706Z,1000.06
2023-03-26T00:03:22.611Z,1000.12
2023-03-26T00:04:22.561Z,1000.09
2023-03-26T00:05:22.570Z,1000.11
2023-03-26T00:06:22.495Z,1000.12
2023-03-26T00:07:22.456Z,1000.10
2023-03-26T00:08:22.419Z,1000.13
2023-03-26T00:09:22.380Z,1000.06
2023-03-26T00:10:22.356Z,1000.08
2023-03-26T00:11:22.330Z,1000.09
2023-03-26T00:12:22.272Z,1000.08
2023-03-26T00:13:22.238Z,1000.08
2023-03-26T00:14:22.202Z,1000.10
2023-03-26T00:15:22.164Z,1000.15
2023-03-26T00:16:22.183Z,1000.11
2023-03-26T00:17:22.088Z,1000.10
2023-03-26T00:18:22.190Z,1000.09
2023-03-26T00:19:22.028Z,1000.07
2023-03-26T00:20:21.988Z,1000.09
2023-03-26T00:21:21.945Z,1000.04
2023-03-26T00:22:21.913Z,1000.07
2023-03-26T00:23:21.872Z,1000.07
2023-03-26T00:24:21.833Z,1000.08
2023-03-26T00:25:21.817Z,1000.02
2023-03-26T00:26:21.763Z,999.99
2023-03-26T00:27:21.745Z,1000.03
2023-03-26T00:28:21.693Z,1000.06
2023-03-26T00:29:21.653Z,1000.01
2023-03-26T00:30:21.619Z,1000.03
2023-03-26T00:31:21.597Z,1000.01
2023-03-26T00:32:21.550Z,1000.01
2023-03-26T00:33:21.507Z,999.98
2023-03-26T00:34:21.481Z,999.97
2023-03-26T00:35:21.441Z,999.95
2023-03-26T00:36:21.433Z,999.95
2023-03-26T00:37:21.373Z,999.93
2023-03-26T00:38:21.350Z,999.95
2023-03-26T00:39:21.299Z,999.87
2023-03-26T00:40:21.282Z,999.89
2023-03-26T00:41:21.232Z,999.88
2023-03-26T00:42:21.196Z,999.88
2023-03-26T00:43:21.147Z,999.82
2023-03-26T00:44:21.110Z,999.84
2023-03-26T00:45:21.078Z,999.85
2023-03-26T00:46:21.131Z,999.84
2023-03-26T00:47:21.004Z,999.82
2023-03-26T00:48:26.296Z,999.80
2023-03-26T00:49:20.948Z,999.81
2023-03-26T00:50:20.898Z,999.80
2023-03-26T00:51:20.865Z,999.79
2023-03-26T00:52:20.828Z,999.81
2023-03-26T00:53:20.786Z,999.80
2023-03-26T00:54:20.758Z,999.78
2023-03-26T00:55:20.713Z,999.74
2023-03-26T00:56:20.674Z,999.76
2023-03-26T00:57:34.532Z,999.79
2023-03-26T00:58:20.617Z,999.77
2023-03-26T00:59:20.579Z,999.75
2023-03-26T01:00:20.537Z,999.70
2023-03-26T01:01:20.534Z,999.67
2023-03-26T01:02:20.505Z,999.64
2023-03-26T01:03:27.020Z,999.64
2023-03-26T01:04:20.474Z,999.62
2023-03-26T01:05:20.359Z,999.63
2023-03-26T01:06:20.311Z,999.59
2023-03-26T01:07:20.286Z,999.60
2023-03-26T01:08:20.240Z,999.58
2023-03-26T01:09:20.217Z,999.56
2023-03-26T01:10:20.164Z,999.49
2023-03-26T01:11:20.128Z,999.49
2023-03-26T01:12:20.116Z,999.46
2023-03-26T01:13:20.055Z,999.49
2023-03-26T01:14:20.018Z,999.46
2023-03-26T01:15:19.998Z,999.46
2023-03-26T01:16:20.064Z,999.43
2023-03-26T01:17:19.912Z,999.47
2023-03-26T01:18:19.872Z,999.41
2023-03-26T01:19:19.837Z,999.40
2023-03-26T01:20:19.806Z,999.40
2023-03-26T01:21:19.763Z,999.31
2023-03-26T01:22:19.727Z,999.38
2023-03-26T01:23:19.693Z,999.35
2023-03-26T01:24:19.659Z,999.36
2023-03-26T01:25:19.623Z,999.34
2023-03-26T01:26:19.596Z,999.35
2023-03-26T01:27:19.546Z,999.31
2023-03-26T01:28:19.506Z,999.34
2023-03-26T01:29:19.522Z,999.29
2023-03-26T01:30:19.439Z,999.30
2023-03-26T01:31:19.400Z,999.26
2023-03-26T01:32:19.420Z,999.22
2023-03-26T01:33:19.441Z,999.23
2023-03-26T01:34:19.293Z,999.21
2023-03-26T01:35:19.285Z,999.23
2023-03-26T01:36:19.221Z,999.22
2023-03-26T01:37:19.180Z,999.20
2023-03-26T01:38:19.139Z,999.19
2023-03-26T01:39:19.110Z,999.16
2023-03-26T01:40:19.071Z,999.19
2023-03-26T01:41:19.085Z,999.14
2023-03-26T01:42:18.991Z,999.17
2023-03-26T01:43:18.986Z,999.14
2023-03-26T01:44:18.924Z,999.15
2023-03-26T01:45:18.899Z,999.16
2023-03-26T01:46:18.916Z,999.12
2023-03-26T01:47:18.859Z,999.09
2023-03-26T01:48:18.773Z,999.10
2023-03-26T01:49:18.757Z,999.08
2023-03-26T01:50:18.707Z,999.05
2023-03-26T01:51:18.667Z,999.04
2023-03-26T01:52:18.629Z,999.01
2023-03-26T01:53:18.591Z,999.00
2023-03-26T01:54:18.563Z,999.02
2023-03-26T01:55:18.524Z,999.01
2023-03-26T01:56:18.492Z,998.96
2023-03-26T01:57:18.451Z,999.00
2023-03-26T01:58:18.412Z,998.99
2023-03-26T01:59:18.394Z,998.94
2023-03-26T02:00:18.341Z,998.99
2023-03-26T02:01:18.305Z,998.92
2023-03-26T02:02:18.389Z,998.93
2023-03-26T02:03:18.688Z,998.93
2023-03-26T02:04:18.196Z,998.86
2023-03-26T02:05:18.165Z,998.87
2023-03-26T02:06:18.117Z,998.87
2023-03-26T02:07:18.087Z,998.84
2023-03-26T02:08:18.051Z,998.79
2023-03-26T02:09:18.010Z,998.81
2023-03-26T02:10:17.975Z,998.80
2023-03-26T02:11:20.017Z,998.73
2023-03-26T02:12:17.896Z,998.73
2023-03-26T02:13:17.864Z,998.74
2023-03-26T02:14:17.833Z,998.70
2023-03-26T02:15:17.801Z,998.70
2023-03-26T02:16:17.777Z,998.67
2023-03-26T02:17:17.718Z,998.63
2023-03-26T02:18:17.734Z,998.65
2023-03-26T02:19:17.646Z,998.66
2023-03-26T02:20:17.606Z,998.66
2023-03-26T02:21:17.580Z,998.61
2023-03-26T02:22:17.532Z,998.60
2023-03-26T02:23:17.499Z,998.60
2023-03-26T02:24:17.458Z,998.59
2023-03-26T02:25:17.424Z,998.57
2023-03-26T02:26:17.388Z,998.54
2023-03-26T02:27:17.357Z,998.52
2023-03-26T02:28:17.317Z,998.49
2023-03-26T02:29:17.285Z,998.49
2023-03-26T02:30:17.244Z,998.47
2023-03-26T02:31:17.251Z,998.42
2023-03-26T02:32:17.172Z,998.36
2023-03-26T02:33:17.138Z,998.35
2023-03-26T02:34:17.098Z,998.35
2023-03-26T02:35:17.119Z,998.32
2023-03-26T02:36:17.095Z,998.33
2023-03-26T02:37:16.988Z,998.33
2023-03-26T02:38:16.955Z,998.31
2023-03-26T02:39:16.940Z,998.29
2023-03-26T02:40:16.880Z,998.28
2023-03-26T02:41:16.850Z,998.24
2023-03-26T02:42:16.813Z,998.22
2023-03-26T02:43:16.773Z,998.23
2023-03-26T02:44:16.735Z,998.23
2023-03-26T02:45:16.735Z,998.23
2023-03-26T02:46:16.688Z,998.20
2023-03-26T02:47:16.631Z,998.22
2023-03-26T02:48:16.588Z,998.18
2023-03-26T02:49:16.551Z,998.21
2023-03-26T02:50:16.533Z,998.19
2023-03-26T02:51:16.487Z,998.16
2023-03-26T02:52:16.454Z,998.13
2023-03-26T02:53:16.409Z,998.10
2023-03-26T02:54:16.373Z,998.07
2023-03-26T02:55:16.343Z,998.05
2023-03-26T02:56:16.315Z,998.03
2023-03-26T02:57:16.357Z,998.01
2023-03-26T02:58:16.234Z,997.95
2023-03-26T02:59:16.198Z,997.97
2023-03-26T03:00:16.154Z,997.95
2023-03-26T03:01:16.137Z,997.99
2023-03-26T03:02:16.103Z,997.94
2023-03-26T03:03:16.115Z,997.94
2023-03-26T03:04:16.013Z,997.94
2023-03-26T03:05:15.985Z,997.90
2023-03-26T03:06:15.948Z,997.93
2023-03-26T03:07:15.914Z,997.90
2023-03-26T03:08:15.871Z,997.90
2023-03-26T03:09:15.834Z,997.89
2023-03-26T03:10:15.809Z,997.87
2023-03-26T03:11:15.763Z,997.88
2023-03-26T03:12:15.722Z,997.85
2023-03-26T03:13:15.691Z,997.86
2023-03-26T03:14:15.656Z,997.78
2023-03-26T03:15:15.615Z,997.81
2023-03-26T03:16:15.635Z,997.80
2023-03-26T03:17:15.546Z,997.80
2023-03-26T03:18:15.506Z,997.81
2023-03-26T03:19:15.468Z,997.78
2023-03-26T03:20:15.453Z,997.79
2023-03-26T03:21:15.402Z,997.78
2023-03-26T03:22:15.371Z,997.75
2023-03-26T03:23:15.327Z,997.76
2023-03-26T03:24:15.299Z,997.71
2023-03-26T03:25:15.255Z,997.72
2023-03-26T03:26:15.226Z,997.71
2023-03-26T03:27:15.186Z,997.73
2023-03-26T03:28:15.153Z,997.68
2023-03-26T03:29:15.118Z,997.67
2023-03-26T03:30:15.079Z,997.69
2023-03-26T03:31:15.100Z,997.66
2023-03-26T03:32:15.008Z,997.67
2023-03-26T03:33:14.971Z,997.59
2023-03-26T03:34:14.990Z,997.59
2023-03-26T03:35:14.900Z,997.58
2023-03-26T03:36:20.452Z,997.61
2023-03-26T03:37:14.837Z,997.58
2023-03-26T03:38:14.795Z,997.53
2023-03-26T03:39:14.757Z,997.49
2023-03-26T03:40:14.724Z,997.49
2023-03-26T03:41:14.689Z,997.49
2023-03-26T03:42:14.655Z,997.45
2023-03-26T03:43:14.611Z,997.45
2023-03-26T03:44:14.574Z,997.41
2023-03-26T03:45:14.551Z,997.35
2023-03-26T03:46:14.578Z,997.39
2023-03-26T03:47:14.480Z,997.33
2023-03-26T03:48:14.433Z,997.30
2023-03-26T03:49:14.397Z,997.29
2023-03-26T03:50:14.368Z,997.28
2023-03-26T03:51:14.331Z,997.22
2023-03-26T03:52:14.297Z,997.24
2023-03-26T03:53:14.266Z,997.21
2023-03-26T03:54:14.228Z,997.20
2023-03-26T03:55:14.188Z,997.19
2023-03-26T03:56:14.149Z,997.24
2023-03-26T03:57:14.198Z,997.23
2023-03-26T03:58:14.081Z,997.17
2023-03-26T03:59:14.057Z,997.19
2023-03-26T04:00:13.997Z,997.16
2023-03-26T04:01:13.970Z,997.13
2023-03-26T04:02:13.959Z,997.10
2023-03-26T04:03:13.987Z,997.08
2023-03-26T04:04:13.889Z,997.09
2023-03-26T04:05:13.820Z,997.07
2023-03-26T04:06:13.790Z,997.04
2023-03-26T04:07:13.749Z,997.02
2023-03-26T04:08:13.710Z,996.99
2023-03-26T04:09:13.680Z,996.99
2023-03-26T04:10:13.647Z,996.98
2023-03-26T04:11:13.605Z,996.99
2023-03-26T04:12:13.578Z,997.00
2023-03-26T04:13:13.535Z,997.01
2023-03-26T04:14:13.500Z,996.99
2023-03-26T04:15:13.463Z,996.97
2023-03-26T04:16:13.489Z,996.94
2023-03-26T04:17:13.387Z,996.94
2023-03-26T04:18:13.350Z,996.91
2023-03-26T04:19:13.338Z,996.86
2023-03-26T04:20:13.293Z,996.85
2023-03-26T04:21:13.248Z,996.85
2023-03-26T04:22:13.210Z,996.88
2023-03-26T04:23:13.173Z,996.84
2023-03-26T04:24:13.133Z,996.81
2023-03-26T04:25:13.098Z,996.79
2023-03-26T04:26:13.068Z,996.77
2023-03-26T04:27:13.027Z,996.74
2023-03-26T04:28:12.998Z,996.71
2023-03-26T04:29:12.955Z,996.70
2023-03-26T04:30:12.924Z,996.66
2023-03-26T04:31:12.902Z,996.68
2023-03-26T04:32:12.850Z,996.64
2023-03-26T04:33:12.807Z,996.64
2023-03-26T04:34:12.784Z,996.62
2023-03-26T04:35:12.749Z,996.63
2023-03-26T04:36:12.761Z,996.61
2023-03-26T04:37:12.665Z,996.60
2023-03-26T04:38:12.646Z,996.55
2023-03-26T04:39:12.597Z,996.55
2023-03-26T04:40:12.556Z,996.53
2023-03-26T04:41:12.531Z,996.52
2023-03-26T04:42:12.489Z,996.52
2023-03-26T04:43:12.446Z,996.52
2023-03-26T04:44:12.418Z,996.51
2023-03-26T04:45:12.377Z,996.46
2023-03-26T04:46:12.375Z,996.45
2023-03-26T04:47:12.304Z,996.44
2023-03-26T04:48:12.268Z,996.42
2023-03-26T04:49:12.232Z,996.42
2023-03-26T04:50:12.212Z,996.45
2023-03-26T04:51:12.166Z,996.42
2023-03-26T04:52:12.127Z,996.40
2023-03-26T04:53:12.089Z,996.40
2023-03-26T04:54:12.052Z,996.41
2023-03-26T04:55:12.013Z,996.38
2023-03-26T04:56:11.979Z,996.39
2023-03-26T04:57:11.962Z,996.35
2023-03-26T04:58:11.905Z,996.31
2023-03-26T04:59:11.873Z,996.32
2023-03-26T05:00:11.833Z,996.30
2023-03-26T05:01:11.835Z,996.30
2023-03-26T05:02:11.783Z,996.26
2023-03-26T05:03:11.727Z,996.24
2023-03-26T05:04:11.736Z,996.26
2023-03-26T05:05:11.651Z,996.18
2023-03-26T05:06:11.625Z,996.20
2023-03-26T05:07:11.590Z,996.16
2023-03-26T05:08:11.597Z,996.16
2023-03-26T05:09:11.503Z,996.13
2023-03-26T05:10:11.472Z,996.10
2023-03-26T05:11:11.664Z,996.14
2023-03-26T05:12:11.396Z,996.10
2023-03-26T05:13:11.361Z,996.07
2023-03-26T05:14:11.354Z,996.11
2023-03-26T05:15:11.289Z,996.04
2023-03-26T05:16:11.342Z,996.01
2023-03-26T05:17:11.221Z,996.01
2023-03-26T05:18:11.184Z,996.01
2023-03-26T05:19:11.146Z,996.00
2023-03-26T05:20:11.110Z,995.97
2023-03-26T05:21:11.088Z,995.97
2023-03-26T05:22:11.038Z,995.94
2023-03-26T05:23:11.003Z,995.93
2023-03-26T05:24:10.964Z,995.92
2023-03-26T05:25:10.930Z,995.88
2023-03-26T05:26:10.885Z,995.85
2023-03-26T05:27:10.853Z,995.78
2023-03-26T05:28:10.821Z,995.77
2023-03-26T05:29:10.792Z,995.75
2023-03-26T05:30:10.745Z,995.71
2023-03-26T05:31:10.705Z,995.68
2023-03-26T05:32:10.672Z,995.67
2023-03-26T05:33:10.758Z,995.63
2023-03-26T05:34:10.595Z,995.59
2023-03-26T05:35:10.563Z,995.58
2023-03-26T05:36:10.538Z,995.55
2023-03-26T05:37:10.488Z,995.58
2023-03-26T05:38:10.453Z,995.49
2023-03-26T05:39:10.420Z,995.44
2023-03-26T05:40:10.377Z,995.43
2023-03-26T05:41:10.344Z,995.41
2023-03-26T05:42:10.308Z,995.35
2023-03-26T05:43:10.274Z,995.31
2023-03-26T05:44:10.235Z,995.30
2023-03-26T05:45:10.200Z,995.26
2023-03-26T05:46:10.215Z,995.23
2023-03-26T05:47:10.129Z,995.22
2023-03-26T05:48:10.135Z,995.16
2023-03-26T05:49:10.054Z,995.14
2023-03-26T05:50:10.034Z,995.13
2023-03-26T05:51:10.003Z,995.06
2023-03-26T05:52:09.951Z,995.00
2023-03-26T05:53:09.907Z,995.00
2023-03-26T05:54:09.871Z,995.01
2023-03-26T05:55:09.832Z,994.96
2023-03-26T05:56:09.802Z,994.97
2023-03-26T05:57:09.853Z,994.97
2023-03-26T05:58:09.726Z,994.97
2023-03-26T05:59:09.693Z,995.01
2023-03-26T06:00:09.660Z,995.10
2023-03-26T06:01:09.672Z,995.24
2023-03-26T06:02:09.589Z,995.25
2023-03-26T06:03:09.661Z,995.24
2023-03-26T06:04:09.585Z,995.27
2023-03-26T06:05:09.476Z,995.22
2023-03-26T06:06:09.436Z,995.15
2023-03-26T06:07:09.400Z,995.09
2023-03-26T06:08:09.359Z,995.04
2023-03-26T06:09:09.353Z,995.04
2023-03-26T06:10:09.295Z,995.08
2023-03-26T06:11:09.318Z,995.07
2023-03-26T06:12:09.237Z,995.11
2023-03-26T06:13:09.174Z,995.07
2023-03-26T06:14:09.143Z,995.05
2023-03-26T06:15:09.111Z,994.98
2023-03-26T06:16:09.141Z,994.98
2023-03-26T06:17:09.027Z,994.97
2023-03-26T06:18:09.028Z,994.95
2023-03-26T06:19:09.024Z,994.91
2023-03-26T06:20:09.569Z,994.90
2023-03-26T06:21:08.923Z,994.86
2023-03-26T06:22:08.871Z,994.84
2023-03-26T06:23:08.814Z,994.86
2023-03-26T06:24:08.784Z,994.85
2023-03-26T06:25:08.738Z,994.86
2023-03-26T06:26:08.719Z,994.82
2023-03-26T06:27:08.671Z,994.82
2023-03-26T06:28:08.630Z,994.81
2023-03-26T06:29:08.594Z,994.80
2023-03-26T06:30:08.557Z,994.81
2023-03-26T06:31:08.554Z,994.78
2023-03-26T06:32:19.183Z,994.79
2023-03-26T06:33:08.447Z,994.79
2023-03-26T06:34:08.413Z,994.75
2023-03-26T06:35:08.375Z,994.74
2023-03-26T06:36:08.388Z,994.73
2023-03-26T06:37:08.305Z,994.71
2023-03-26T06:38:08.286Z,994.67
2023-03-26T06:39:08.268Z,994.62
2023-03-26T06:40:08.210Z,994.64
2023-03-26T06:41:08.175Z,994.65
2023-03-26T06:42:08.133Z,994.69
2023-03-26T06:43:10.675Z,994.67
2023-03-26T06:44:08.051Z,994.73
2023-03-26T06:45:08.012Z,994.68
2023-03-26T06:46:08.010Z,994.64
2023-03-26T06:47:07.953Z,994.65
2023-03-26T06:48:07.932Z,994.65
2023-03-26T06:49:07.898Z,994.63
2023-03-26T06:50:07.831Z,994.63
2023-03-26T06:51:07.796Z,994.60
2023-03-26T06:52:07.759Z,994.59
2023-03-26T06:53:07.723Z,994.57
2023-03-26T06:54:07.689Z,994.58
2023-03-26T06:55:07.651Z,994.62
2023-03-26T06:56:09.129Z,994.57
2023-03-26T06:57:07.620Z,994.55
2023-03-26T06:58:07.545Z,994.52
2023-03-26T06:59:07.520Z,994.53
2023-03-26T07:00:07.468Z,994.50
2023-03-26T07:01:07.500Z,994.49
2023-03-26T07:02:07.396Z,994.48
2023-03-26T07:03:07.367Z,994.46
2023-03-26T07:04:07.423Z,994.45
2023-03-26T07:05:07.295Z,994.46
2023-03-26T07:06:07.252Z,994.43
2023-03-26T07:07:07.221Z,994.41
2023-03-26T07:08:07.199Z,994.43
2023-03-26T07:09:07.139Z,994.41
2023-03-26T07:10:07.110Z,994.45
2023-03-26T07:11:07.068Z,994.44
2023-03-26T07:12:07.042Z,994.42
2023-03-26T07:13:07.009Z,994.40
2023-03-26T07:14:06.959Z,994.40
2023-03-26T07:15:06.930Z,994.35
2023-03-26T07:16:06.888Z,994.38
2023-03-26T07:17:06.851Z,994.37
2023-03-26T07:18:06.824Z,994.34
2023-03-26T07:19:06.773Z,994.32
2023-03-26T07:20:06.740Z,994.30
2023-03-26T07:21:06.705Z,994.31
2023-03-26T07:22:06.682Z,994.34
2023-03-26T07:23:06.628Z,994.29
2023-03-26T07:24:06.596Z,994.28
2023-03-26T07:25:06.564Z,994.27
2023-03-26T07:26:06.520Z,994.26
2023-03-26T07:27:06.482Z,994.25
2023-03-26T07:28:06.596Z,994.22
2023-03-26T07:29:06.412Z,994.22
2023-03-26T07:30:06.429Z,994.20
2023-03-26T07:31:06.407Z,994.19
2023-03-26T07:32:06.392Z,994.15
2023-03-26T07:33:06.272Z,994.17
2023-03-26T07:34:06.245Z,994.17
2023-03-26T07:35:06.190Z,994.19
2023-03-26T07:36:06.284Z,994.16
2023-03-26T07:37:06.120Z,994.14
2023-03-26T07:38:06.085Z,994.16
2023-03-26T07:39:06.044Z,994.09
2023-03-26T07:40:06.012Z,994.08
2023-03-26T07:41:05.979Z,994.08
2023-03-26T07:42:05.939Z,994.07
2023-03-26T07:43:05.983Z,994.02
2023-03-26T07:44:05.864Z,994.00
2023-03-26T07:45:05.834Z,994.00
2023-03-26T07:46:05.891Z,994.02
2023-03-26T07:47:05.821Z,993.96
2023-03-26T07:48:05.714Z,993.99
2023-03-26T07:49:05.676Z,993.97
2023-03-26T07:50:05.650Z,993.96
2023-03-26T07:51:05.606Z,993.93
2023-03-26T07:52:05.573Z,993.93
2023-03-26T07:53:05.534Z,993.93
2023-03-26T07:54:05.497Z,993.93
2023-03-26T07:55:05.457Z,993.95
2023-03-26T07:56:05.485Z,993.92
2023-03-26T07:57:05.448Z,993.94
2023-03-26T07:58:05.346Z,993.89
2023-03-26T07:59:05.313Z,993.89
2023-03-26T08:00:05.278Z,993.89
2023-03-26T08:01:05.254Z,993.86
2023-03-26T08:02:05.225Z,993.84
2023-03-26T08:03:05.306Z,993.88
2023-03-26T08:04:24.263Z,993.85
2023-03-26T08:05:05.333Z,993.83
2023-03-26T08:06:05.074Z,993.83
2023-03-26T08:07:05.031Z,993.83
2023-03-26T08:08:05.000Z,993.86
2023-03-26T08:09:04.951Z,993.84
2023-03-26T08:10:04.953Z,993.87
2023-03-26T08:11:04.870Z,993.85
2023-03-26T08:12:04.841Z,993.83
2023-03-26T08:13:04.799Z,993.81
2023-03-26T08:14:04.766Z,993.77
2023-03-26T08:15:04.726Z,993.77
2023-03-26T08:16:04.718Z,993.79
2023-03-26T08:17:04.651Z,993.78
2023-03-26T08:18:04.645Z,993.79
2023-03-26T08:19:04.588Z,993.76
2023-03-26T08:20:04.541Z,993.75
2023-03-26T08:21:04.511Z,993.75
2023-03-26T08:22:04.474Z,993.74
2023-03-26T08:23:04.431Z,993.73
2023-03-26T08:24:04.397Z,993.69
2023-03-26T08:25:04.406Z,993.72
2023-03-26T08:26:04.330Z,993.69
2023-03-26T08:27:04.289Z,993.66
2023-03-26T08:28:04.314Z,993.64
2023-03-26T08:29:04.269Z,993.64
2023-03-26T08:30:04.179Z,993.64
2023-03-26T08:31:04.173Z,993.63
2023-03-26T08:32:04.114Z,993.64
2023-03-26T08:33:04.129Z,993.64
2023-03-26T08:34:04.033Z,993.65
2023-03-26T08:35:04.049Z,993.63
2023-03-26T08:36:04.052Z,993.61
2023-03-26T08:37:03.929Z,993.62
2023-03-26T08:38:03.883Z,993.59
2023-03-26T08:39:03.861Z,993.61
2023-03-26T08:40:03.813Z,993.56
2023-03-26T08:41:03.783Z,993.60
2023-03-26T08:42:03.740Z,993.64
2023-03-26T08:43:03.700Z,993.61
2023-03-26T08:44:03.666Z,993.59
2023-03-26T08:45:03.623Z,993.55
2023-03-26T08:46:03.614Z,993.56
2023-03-26T08:47:03.550Z,993.52
2023-03-26T08:48:03.599Z,993.48
2023-03-26T08:49:03.476Z,993.43
2023-03-26T08:50:03.453Z,993.45
2023-03-26T08:51:03.411Z,993.41
2023-03-26T08:52:03.378Z,993.41
2023-03-26T08:53:03.343Z,993.36
2023-03-26T08:54:03.373Z,993.37
2023-03-26T08:55:03.259Z,993.33
2023-03-26T08:56:03.230Z,993.32
2023-03-26T08:57:03.278Z,993.30
2023-03-26T08:58:03.159Z,993.31
2023-03-26T08:59:03.128Z,993.26
2023-03-26T09:00:03.175Z,993.28
2023-03-26T09:01:03.054Z,993.23
2023-03-26T09:02:03.064Z,993.22
2023-03-26T09:03:03.026Z,993.18
2023-03-26T09:04:02.974Z,993.20
2023-03-26T09:05:02.898Z,993.16
2023-03-26T09:06:02.859Z,993.16
2023-03-26T09:07:02.825Z,993.13
2023-03-26T09:08:02.802Z,993.12
2023-03-26T09:09:02.747Z,993.15
2023-03-26T09:10:02.715Z,993.13
2023-03-26T09:11:02.697Z,993.08
2023-03-26T09:12:02.637Z,993.07
2023-03-26T09:13:02.599Z,993.04
2023-03-26T09:14:02.574Z,993.03
2023-03-26T09:15:02.536Z,992.97
2023-03-26T09:16:02.521Z,992.98
2023-03-26T09:17:02.469Z,992.94
2023-03-26T09:18:02.463Z,992.99
2023-03-26T09:19:02.399Z,992.93
2023-03-26T09:20:02.388Z,992.94
2023-03-26T09:21:02.316Z,992.93
2023-03-26T09:22:02.280Z,992.92
2023-03-26T09:23:02.255Z,992.91
2023-03-26T09:24:02.206Z,992.89
2023-03-26T09:25:02.173Z,992.91
2023-03-26T09:26:02.134Z,992.89
2023-03-26T09:27:02.096Z,992.88
2023-03-26T09:28:02.061Z,992.85
2023-03-26T09:29:02.020Z,992.85
2023-03-26T09:30:02.011Z,992.80
2023-03-26T09:31:01.975Z,992.81
2023-03-26T09:32:01.916Z,992.80
2023-03-26T09:33:01.943Z,992.81
2023-03-26T09:34:01.847Z,992.80
2023-03-26T09:35:01.813Z,992.81
2023-03-26T09:36:01.891Z,992.81
2023-03-26T09:37:01.732Z,992.77
2023-03-26T09:38:01.702Z,992.77
2023-03-26T09:39:01.671Z,992.74
2023-03-26T09:40:01.666Z,992.74
2023-03-26T09:41:01.604Z,992.71
2023-03-26T09:42:01.555Z,992.69
2023-03-26T09:43:01.516Z,992.69
2023-03-26T09:44:01.478Z,992.68
2023-03-26T09:45:01.451Z,992.61
2023-03-26T09:46:01.456Z,992.63
2023-03-26T09:47:01.369Z,992.63
2023-03-26T09:48:01.356Z,992.62
2023-03-26T09:49:01.306Z,992.61
2023-03-26T09:50:01.271Z,992.59
2023-03-26T09:51:01.230Z,992.60
2023-03-26T09:52:01.189Z,992.54
2023-03-26T09:53:01.151Z,992.54
2023-03-26T09:54:01.119Z,992.53
2023-03-26T09:55:01.093Z,992.55
2023-03-26T09:56:01.059Z,992.51
2023-03-26T09:57:01.030Z,992.55
2023-03-26T09:58:01.011Z,992.47
2023-03-26T09:59:00.935Z,992.51
2023-03-26T10:00:00.907Z,992.53
2023-03-26T10:01:00.931Z,992.54
2023-03-26T10:02:00.841Z,992.54
2023-03-26T10:03:00.813Z,992.53
2023-03-26T10:04:00.773Z,992.48
2023-03-26T10:05:00.771Z,992.51
2023-03-26T10:06:00.728Z,992.52
2023-03-26T10:07:00.651Z,992.48
2023-03-26T10:08:00.619Z,992.46
2023-03-26T10:09:00.615Z,992.49
2023-03-26T10:10:00.554Z,992.47
2023-03-26T10:11:00.513Z,992.45
2023-03-26T10:12:00.483Z,992.48
2023-03-26T10:13:11.968Z,992.46
2023-03-26T10:14:00.478Z,992.46
2023-03-26T10:15:00.358Z,992.47
2023-03-26T10:16:00.328Z,992.43
2023-03-26T10:17:00.346Z,992.44
2023-03-26T10:18:00.304Z,992.40
2023-03-26T10:19:00.220Z,992.40
2023-03-26T10:20:00.190Z,992.39
2023-03-26T10:21:00.161Z,992.37
2023-03-26T10:22:00.155Z,992.34
2023-03-26T10:23:00.096Z,992.33
2023-03-26T10:24:00.074Z,992.37
2023-03-26T10:25:00.012Z,992.34
2023-03-26T10:25:59.975Z,992.33
2023-03-26T10:27:09.839Z,992.31
2023-03-26T10:27:59.917Z,992.27
2023-03-26T10:29:00.131Z,992.28
2023-03-26T10:29:59.830Z,992.26
2023-03-26T10:30:59.829Z,992.25
2023-03-26T10:31:59.769Z,992.20
2023-03-26T10:32:59.805Z,992.22
2023-03-26T10:33:59.695Z,992.19
2023-03-26T10:34:59.648Z,992.20
2023-03-26T10:35:59.641Z,992.15
2023-03-26T10:36:59.617Z,992.18
2023-03-26T10:37:59.623Z,992.12
2023-03-26T10:38:59.515Z,992.14
2023-03-26T10:39:59.507Z,992.13
2023-03-26T10:40:59.449Z,992.11
2023-03-26T10:41:59.413Z,992.10
2023-03-26T10:42:59.369Z,992.10
2023-03-26T10:44:07.992Z,992.08
2023-03-26T10:44:59.306Z,992.10
2023-03-26T10:45:59.301Z,992.04
2023-03-26T10:46:59.230Z,992.02
2023-03-26T10:47:59.235Z,992.02
2023-03-26T10:48:59.168Z,992.03
2023-03-26T10:49:59.126Z,991.99
2023-03-26T10:50:59.092Z,991.99
2023-03-26T10:51:59.054Z,991.99
2023-03-26T10:52:59.050Z,991.91
2023-03-26T10:53:58.996Z,991.96
2023-03-26T10:54:58.946Z,991.94
2023-03-26T10:55:58.922Z,991.96
2023-03-26T10:56:58.921Z,991.94
2023-03-26T10:57:58.842Z,991.94
2023-03-26T10:58:58.830Z,991.94
2023-03-26T10:59:58.764Z,991.91
2023-03-26T11:00:58.737Z,991.92
2023-03-26T11:01:58.757Z,991.93
2023-03-26T11:02:58.678Z,991.91
2023-03-26T11:03:58.633Z,991.89
2023-03-26T11:04:58.603Z,991.91
2023-03-26T11:05:58.606Z,991.94
2023-03-26T11:06:58.528Z,991.94
2023-03-26T11:07:58.493Z,991.92
2023-03-26T11:08:58.452Z,991.96
2023-03-26T11:09:58.450Z,991.95
2023-03-26T11:10:58.383Z,991.90
2023-03-26T11:11:58.363Z,991.89
2023-03-26T11:12:58.317Z,991.82
2023-03-26T11:13:58.276Z,991.77
2023-03-26T11:14:58.255Z,991.77
2023-03-26T11:15:58.229Z,991.80
2023-03-26T11:16:58.170Z,991.84
2023-03-26T11:17:58.173Z,991.82
2023-03-26T11:18:58.117Z,991.87
2023-03-26T11:19:58.081Z,991.83
2023-03-26T11:21:19.451Z,991.85
2023-03-26T11:21:57.995Z,991.86
2023-03-26T11:22:57.962Z,991.86
2023-03-26T11:24:05.114Z,991.86
2023-03-26T11:24:57.895Z,991.88
2023-03-26T11:25:57.859Z,991.84
2023-03-26T11:26:57.820Z,991.82
2023-03-26T11:27:57.790Z,991.82
2023-03-26T11:29:03.573Z,991.82
2023-03-26T11:29:57.709Z,991.84
2023-03-26T11:30:57.864Z,991.82
2023-03-26T11:31:57.645Z,991.82
2023-03-26T11:32:57.636Z,991.81
2023-03-26T11:33:57.578Z,991.77
2023-03-26T11:34:57.556Z,991.76
2023-03-26T11:35:57.568Z,991.79
2023-03-26T11:36:57.475Z,991.80
2023-03-26T11:37:57.456Z,991.80
2023-03-26T11:38:57.409Z,991.79
2023-03-26T11:39:57.373Z,991.80
2023-03-26T11:40:57.775Z,991.78
2023-03-26T11:41:57.319Z,991.79
2023-03-26T11:42:57.259Z,991.78
2023-03-26T11:43:57.254Z,991.78
2023-03-26T11:44:57.207Z,991.79
2023-03-26T11:45:57.148Z,991.79
2023-03-26T11:46:57.204Z,991.78
2023-03-26T11:47:57.112Z,991.75
2023-03-26T11:48:57.045Z,991.78
2023-03-26T11:49:57.007Z,991.78
2023-03-26T11:50:57.254Z,991.79
2023-03-26T11:51:56.936Z,991.81
2023-03-26T11:52:56.916Z,991.83
2023-03-26T11:53:57.592Z,991.80
2023-03-26T11:54:56.834Z,991.82
2023-03-26T11:55:56.835Z,991.81
2023-03-26T11:57:04.505Z,991.80
2023-03-26T11:57:56.727Z,991.83
2023-03-26T11:58:56.687Z,991.83
2023-03-26T11:59:57.893Z,991.88
2023-03-26T12:00:56.837Z,991.90
2023-03-26T12:01:56.646Z,991.98
2023-03-26T12:02:56.618Z,991.99
2023-03-26T12:03:56.514Z,991.98
2023-03-26T12:04:56.517Z,991.98
2023-03-26T12:05:56.445Z,991.98
2023-03-26T12:06:56.403Z,991.97
2023-03-26T12:07:56.364Z,991.96
2023-03-26T12:08:56.336Z,991.93
2023-03-26T12:09:56.313Z,991.99
2023-03-26T12:10:57.144Z,991.98
2023-03-26T12:11:56.230Z,992.02
2023-03-26T12:12:56.192Z,992.03
2023-03-26T12:13:56.150Z,992.06
2023-03-26T12:14:56.114Z,992.08
2023-03-26T12:15:56.101Z,992.07
2023-03-26T12:16:57.115Z,992.10
2023-03-26T12:17:56.133Z,992.08
2023-03-26T12:18:55.985Z,992.06
2023-03-26T12:19:55.930Z,992.01
2023-03-26T12:20:56.118Z,992.05
2023-03-26T12:21:55.862Z,992.06
2023-03-26T12:22:55.823Z,992.05
2023-03-26T12:23:55.782Z,992.07
2023-03-26T12:24:55.753Z,992.08
2023-03-26T12:25:55.710Z,992.06
2023-03-26T12:26:55.674Z,992.08